Time;durP1;ratioP1;P1;durP2;ratioP2;P2;SDS_P1;SDS_P2;PMS_P1;PMS_P2;Temp;Humidity;BMP_temperature;BMP_pressure;BME280_temperature;BME280_humidity;BME280_pressure;Samples;Min_cycle;Max_cycle;Signal;HPM_P1;HPM_P2
2022/10/11 00:00:17;;;;;;;865.08;804.35;;;;;;;15.36;58.17;101526.50;698307;28;22161;-60
2022/10/11 00:00:38;;;;;;;867.22;806.47;;;;;;;15.36;58.53;101527.34;696697;28;67621;-60
2022/10/11 00:00:59;;;;;;;869.88;808.95;;;;;;;15.35;58.17;101525.66;698090;28;23281;-62
2022/10/11 00:01:20;;;;;;;874.67;813.55;;;;;;;15.35;58.58;101524.81;698304;28;19113;-62
2022/10/11 00:01:41;;;;;;;876.43;815.30;;;;;;;15.34;58.27;101523.13;698094;28;22400;-62
2022/10/11 00:02:04;;;;;;;885.47;824.17;;;;;;;15.35;58.20;101527.53;697532;28;45285;-61
2022/10/11 00:02:25;;;;;;;876.42;815.28;;;;;;;15.33;58.31;101522.28;697525;28;45375;-62
2022/10/11 00:02:46;;;;;;;881.55;820.30;;;;;;;15.32;58.49;101526.88;698176;28;22397;-60
2022/10/11 00:03:07;;;;;;;864.85;804.13;;;;;;;15.32;58.19;101523.31;698407;28;22423;-62
2022/10/11 00:03:28;;;;;;;882.58;821.30;;;;;;;15.31;58.32;101519.75;697791;28;22402;-61
2022/10/11 00:03:50;;;;;;;863.20;802.50;;;;;;;15.31;58.40;101521.63;698324;28;23468;-61
2022/10/11 00:04:11;;;;;;;861.15;800.58;;;;;;;15.31;58.47;101529.78;697865;28;37969;-62
2022/10/11 00:04:32;;;;;;;867.25;806.35;;;;;;;15.30;58.32;101530.84;697387;28;46294;-59
2022/10/11 00:04:54;;;;;;;897.17;835.40;;;;;;;15.30;58.65;101525.38;698269;28;22409;-60
2022/10/11 00:05:15;;;;;;;887.63;826.13;;;;;;;15.31;58.47;101527.06;697913;28;21561;-62
2022/10/11 00:05:37;;;;;;;864.10;803.42;;;;;;;15.30;58.29;101528.94;698249;28;22370;-61
2022/10/11 00:06:01;;;;;;;862.97;802.25;;;;;;;15.29;58.42;101527.25;693858;28;69251;-61
2022/10/11 00:06:22;;;;;;;865.80;805.00;;;;;;;15.29;58.57;101532.69;693057;28;92264;-60
2022/10/11 00:06:43;;;;;;;860.65;800.03;;;;;;;15.30;58.38;101528.09;695917;28;22397;-62
2022/10/11 00:07:05;;;;;;;876.40;815.15;;;;;;;15.30;58.41;101531.66;696449;28;22402;-61
2022/10/11 00:07:29;;;;;;;865.40;804.60;;;;;;;15.28;58.18;101530.16;695691;28;13373;-61
2022/10/11 00:07:51;;;;;;;860.45;799.72;;;;;;;15.28;58.37;101528.31;696309;28;43975;-60
2022/10/11 00:08:12;;;;;;;860.45;799.83;;;;;;;15.28;58.45;101535.59;695666;28;23678;-62
2022/10/11 00:08:35;;;;;;;853.28;792.88;;;;;;;15.24;58.15;101526.16;694319;28;45280;-63
2022/10/11 00:08:56;;;;;;;857.50;797.00;;;;;;;15.27;58.22;101523.03;696472;28;46458;-62
2022/10/11 00:09:17;;;;;;;849.88;789.67;;;;;;;15.27;58.30;101531.22;694520;28;46342;-62
2022/10/11 00:09:38;;;;;;;857.60;797.17;;;;;;;15.27;58.20;101540.22;695403;28;23724;-61
2022/10/11 00:10:00;;;;;;;888.35;826.97;;;;;;;15.27;58.01;101531.22;696120;28;22399;-62
2022/10/11 00:10:24;;;;;;;878.83;817.65;;;;;;;15.25;58.16;101531.41;697546;28;36577;-61
2022/10/11 00:10:55;;;;;;;860.60;799.95;;;;;;;15.25;58.07;101535.97;697202;28;22410;-62
2022/10/11 00:11:16;;;;;;;856.72;796.22;;;;;;;15.24;58.00;101537.03;690749;28;160405;-62
2022/10/11 00:11:38;;;;;;;883.42;822.10;;;;;;;15.23;58.02;101532.59;694852;28;46365;-62
2022/10/11 00:11:59;;;;;;;889.75;828.25;;;;;;;15.22;57.88;101531.78;695541;28;44384;-62
2022/10/11 00:12:20;;;;;;;899.72;837.88;;;;;;;15.22;58.16;101533.63;698210;28;23416;-61
2022/10/11 00:12:42;;;;;;;913.92;851.72;;;;;;;15.21;58.12;101537.41;697997;28;23199;-62
2022/10/11 00:13:03;;;;;;;916.03;853.65;;;;;;;15.21;58.13;101538.25;695946;28;44484;-61
2022/10/11 00:13:26;;;;;;;917.45;855.03;;;;;;;15.20;57.87;101530.25;698168;28;23456;-62
2022/10/11 00:13:47;;;;;;;917.38;854.88;;;;;;;15.19;58.17;101529.44;694673;28;88266;-61
2022/10/11 00:14:08;;;;;;;918.13;855.75;;;;;;;15.19;58.21;101543.03;697544;28;21486;-61
2022/10/11 00:14:29;;;;;;;926.75;864.10;;;;;;;15.18;58.04;101540.50;698344;28;21531;-62
2022/10/11 00:14:53;;;;;;;926.45;863.78;;;;;;;15.17;57.80;101544.25;696731;28;45249;-62
2022/10/11 00:15:16;;;;;;;933.25;870.35;;;;;;;15.17;58.09;101544.25;696717;28;67446;-63
2022/10/11 00:15:38;;;;;;;937.08;874.05;;;;;;;15.14;58.06;101540.88;696715;28;67494;-60
2022/10/11 00:15:59;;;;;;;952.60;889.05;;;;;;;15.14;58.04;101540.03;696743;28;67267;-62
2022/10/11 00:16:22;;;;;;;948.08;884.58;;;;;;;15.13;58.12;101543.78;698170;28;20799;-60
2022/10/11 00:16:43;;;;;;;954.80;891.17;;;;;;;15.13;58.26;101541.06;697516;28;45017;-61
2022/10/11 00:17:06;;;;;;;954.13;890.45;;;;;;;15.12;58.05;101542.94;697903;28;21450;-61
2022/10/11 00:17:27;;;;;;;935.30;872.35;;;;;;;15.13;57.97;101544.63;695642;28;90684;-61
2022/10/11 00:17:50;;;;;;;921.85;859.38;;;;;;;15.14;57.84;101549.03;698255;28;23406;-60
2022/10/11 00:18:11;;;;;;;917.88;855.45;;;;;;;15.13;57.88;101544.63;697515;28;45116;-60
2022/10/11 00:18:35;;;;;;;914.70;852.42;;;;;;;15.12;57.68;101550.25;698312;28;15023;-62
2022/10/11 00:18:56;;;;;;;918.08;855.70;;;;;;;15.12;57.90;101544.81;697409;28;21552;-61
2022/10/11 00:19:18;;;;;;;896.83;835.13;;;;;;;15.08;57.83;101547.06;696095;28;21561;-61
2022/10/11 00:19:39;;;;;;;906.40;844.28;;;;;;;15.12;57.87;101548.38;693811;28;69449;-62
2022/10/11 00:20:00;;;;;;;899.97;838.20;;;;;;;15.10;58.15;101545.00;697428;28;22366;-60
2022/10/11 00:20:22;;;;;;;888.58;827.03;;;;;;;15.11;58.01;101549.41;697359;28;22494;-62
2022/10/11 00:20:43;;;;;;;881.90;820.55;;;;;;;15.10;57.82;101555.88;694511;28;46117;-62
2022/10/11 00:21:11;;;;;;;890.63;829.03;;;;;;;15.09;58.01;101554.22;695453;28;20900;-61
2022/10/11 00:21:32;;;;;;;891.17;829.58;;;;;;;15.06;58.03;101548.28;690972;28;137978;-60
2022/10/11 00:21:57;;;;;;;906.03;844.05;;;;;;;15.06;57.74;101559.16;694904;28;38120;-61
2022/10/11 00:22:18;;;;;;;884.15;822.78;;;;;;;15.05;57.97;101563.75;695256;28;23421;-59
2022/10/11 00:22:41;;;;;;;856.75;796.25;;;;;;;15.05;57.94;101560.19;695648;28;22399;-62
2022/10/11 00:23:02;;;;;;;854.17;793.72;;;;;;;15.02;57.71;101555.13;694256;28;69783;-60
2022/10/11 00:23:23;;;;;;;869.08;808.15;;;;;;;15.02;57.89;101560.56;698263;28;22409;-61
2022/10/11 00:23:44;;;;;;;857.95;797.35;;;;;;;15.01;58.08;101554.28;695937;28;22393;-60
2022/10/11 00:24:07;;;;;;;853.78;793.33;;;;;;;14.96;58.02;101552.09;695480;28;22377;-63
2022/10/11 00:24:28;;;;;;;881.58;820.22;;;;;;;14.98;57.97;101557.38;693995;28;69367;-62
2022/10/11 00:24:51;;;;;;;910.13;848.00;;;;;;;14.98;58.11;101561.97;695445;28;23470;-61
2022/10/11 00:25:13;;;;;;;889.95;828.55;;;;;;;14.93;58.03;101554.38;693750;28;70206;-62
2022/10/11 00:25:34;;;;;;;856.00;795.53;;;;;;;14.96;58.19;101562.16;695191;28;34650;-62
2022/10/11 00:25:57;;;;;;;864.00;803.25;;;;;;;14.94;57.86;101561.50;695414;28;22406;-60
2022/10/11 00:26:18;;;;;;;862.95;802.25;;;;;;;14.92;57.84;101564.41;693563;28;69420;-60
2022/10/11 00:26:40;;;;;;;863.83;803.13;;;;;;;14.93;58.12;101567.97;696477;28;22419;-61
2022/10/11 00:27:01;;;;;;;869.97;808.78;;;;;;;14.93;58.11;101567.97;693670;28;69749;-61
2022/10/11 00:27:22;;;;;;;867.88;806.70;;;;;;;14.93;57.95;101567.97;692653;28;23500;-60
2022/10/11 00:27:44;;;;;;;864.30;803.42;;;;;;;14.90;57.97;101568.34;692899;28;21537;-63
2022/10/11 00:28:05;;;;;;;868.53;807.60;;;;;;;14.91;58.01;101570.88;692972;28;22460;-63
2022/10/11 00:28:27;;;;;;;870.88;809.78;;;;;;;14.90;58.24;101571.06;694987;28;23536;-62
2022/10/11 00:28:50;;;;;;;874.25;813.17;;;;;;;14.89;58.06;101566.63;694778;28;46331;-63
2022/10/11 00:29:12;;;;;;;877.00;815.85;;;;;;;14.89;58.15;101569.34;694304;28;66738;-61
2022/10/11 00:29:33;;;;;;;895.90;834.17;;;;;;;14.89;58.22;101569.34;696568;28;23728;-63
2022/10/11 00:29:57;;;;;;;908.83;846.78;;;;;;;14.89;58.31;101569.34;696616;28;21511;-62
2022/10/11 00:30:18;;;;;;;910.15;848.00;;;;;;;14.87;58.08;101564.09;696030;28;92082;-63
2022/10/11 00:30:41;;;;;;;906.35;844.35;;;;;;;14.89;58.12;101569.34;697769;28;46240;-63
2022/10/11 00:31:06;;;;;;;916.20;853.90;;;;;;;14.88;58.33;101573.97;696941;28;68229;-62
2022/10/11 00:31:28;;;;;;;905.95;843.85;;;;;;;14.89;58.05;101574.78;694263;28;115911;-62
2022/10/11 00:31:49;;;;;;;897.08;835.22;;;;;;;14.89;58.17;101577.50;694857;28;44375;-63
2022/10/11 00:32:10;;;;;;;910.75;848.58;;;;;;;14.88;58.04;101571.25;695888;28;21545;-63
2022/10/11 00:32:32;;;;;;;895.25;833.65;;;;;;;14.86;58.14;101575.16;697371;28;22336;-62
2022/10/11 00:32:53;;;;;;;894.35;832.83;;;;;;;14.87;57.97;101577.69;697811;28;45337;-63
2022/10/11 00:33:15;;;;;;;903.40;841.60;;;;;;;14.87;58.29;101574.97;698486;28;23407;-62
2022/10/11 00:33:37;;;;;;;891.67;830.15;;;;;;;14.83;57.90;101567.38;697304;28;44367;-63
2022/10/11 00:33:58;;;;;;;897.30;835.60;;;;;;;14.85;58.24;101577.03;698497;28;21600;-63
2022/10/11 00:34:19;;;;;;;880.75;819.50;;;;;;;14.85;58.21;101584.38;698352;28;23632;-63
2022/10/11 00:34:41;;;;;;;880.28;819.08;;;;;;;14.86;58.10;101580.59;698635;28;23441;-62
2022/10/11 00:35:05;;;;;;;884.45;823.15;;;;;;;14.83;57.95;101576.41;697698;28;45202;-62
2022/10/11 00:35:26;;;;;;;887.92;826.53;;;;;;;14.84;58.27;101582.66;693278;28;92428;-63
2022/10/11 00:35:47;;;;;;;893.78;832.22;;;;;;;14.82;58.31;101584.75;697843;28;22169;-63
2022/10/11 00:36:12;;;;;;;906.92;844.90;;;;;;;14.80;58.13;101581.38;698546;28;23491;-62
2022/10/11 00:36:33;;;;;;;919.13;856.78;;;;;;;14.78;58.29;101576.94;695135;28;115276;-62
2022/10/11 00:36:54;;;;;;;910.78;848.70;;;;;;;14.78;58.34;101587.81;698143;28;23512;-63
2022/10/11 00:37:16;;;;;;;908.40;846.22;;;;;;;14.77;58.23;101577.97;697295;28;46273;-63
2022/10/11 00:37:37;;;;;;;925.50;862.90;;;;;;;14.77;58.29;101585.28;698253;28;22347;-61
2022/10/11 00:38:00;;;;;;;906.72;844.83;;;;;;;14.76;58.21;101580.88;697749;28;46375;-63
2022/10/11 00:38:21;;;;;;;889.00;827.70;;;;;;;14.76;58.20;101589.91;697154;28;46230;-62
2022/10/11 00:38:42;;;;;;;907.28;845.45;;;;;;;14.76;58.41;101578.16;698059;28;22417;-62
2022/10/11 00:39:03;;;;;;;898.92;837.42;;;;;;;14.77;58.37;101585.28;695776;28;23781;-63
2022/10/11 00:39:25;;;;;;;920.75;858.50;;;;;;;14.76;58.38;101580.88;694859;28;46280;-62
2022/10/11 00:39:47;;;;;;;903.17;841.50;;;;;;;14.76;57.99;101576.28;694891;28;44220;-62
2022/10/11 00:40:12;;;;;;;902.53;841.00;;;;;;;14.75;58.20;101580.03;695582;28;22400;-62
2022/10/11 00:40:33;;;;;;;908.90;847.15;;;;;;;14.75;58.09;101585.47;691581;28;137801;-63
2022/10/11 00:40:54;;;;;;;920.30;858.17;;;;;;;14.74;58.54;101577.50;695522;28;22364;-63
2022/10/11 00:41:17;;;;;;;926.50;863.97;;;;;;;14.75;58.46;101581.91;695460;28;23437;-62
2022/10/11 00:41:38;;;;;;;904.67;842.83;;;;;;;14.74;58.38;101585.66;695571;28;70319;-63
2022/10/11 00:41:59;;;;;;;915.78;853.65;;;;;;;14.73;58.31;101586.69;698179;28;22240;-62
2022/10/11 00:42:20;;;;;;;919.10;856.70;;;;;;;14.71;58.24;101584.13;698074;28;22173;-62
2022/10/11 00:42:42;;;;;;;898.47;836.85;;;;;;;14.70;58.06;101584.31;698284;28;22420;-62
2022/10/11 00:43:04;;;;;;;870.15;808.80;;;;;;;14.69;58.40;101582.66;697736;28;44333;-62
2022/10/11 00:43:27;;;;;;;891.10;828.53;;;;;;;14.67;58.31;101584.69;698193;28;23772;-62
2022/10/11 00:44:07;;;;;;;912.38;849.47;;;;;;;14.64;58.34;101588.63;695923;28;92161;-62
2022/10/11 00:44:32;;;;;;;925.45;862.45;;;;;;;14.64;58.50;101585.06;693953;28;138601;-62
2022/10/11 00:45:27;;;;;;;910.78;848.25;;;;;;;14.64;58.36;101590.50;695107;28;115090;-61
2022/10/11 00:46:05;;;;;;;924.15;861.38;;;;;;;14.62;58.26;101592.56;694364;28;137726;-61
2022/10/11 00:46:30;;;;;;;929.17;866.25;;;;;;;14.57;58.39;101574.88;694071;28;137642;-61
2022/10/11 00:46:54;;;;;;;951.95;888.45;;;;;;;14.60;58.57;101592.75;695069;28;115064;-61
2022/10/11 00:47:17;;;;;;;953.67;889.80;;;;;;;14.60;58.27;101593.56;695767;28;92253;-62
2022/10/11 00:47:39;;;;;;;948.40;884.92;;;;;;;14.59;58.75;101589.16;696743;28;69673;-62
2022/10/11 00:48:04;;;;;;;949.42;886.08;;;;;;;14.58;58.49;101595.59;697269;28;46415;-62
2022/10/11 00:48:28;;;;;;;947.20;883.88;;;;;;;14.57;58.63;101590.34;694543;28;115246;-62
2022/10/11 00:48:53;;;;;;;941.45;878.28;;;;;;;14.58;58.56;101597.50;694909;28;115115;-60
2022/10/11 00:49:21;;;;;;;925.72;863.03;;;;;;;14.57;58.46;101591.19;695867;28;92273;-62
2022/10/11 00:49:44;;;;;;;942.20;878.95;;;;;;;14.57;58.40;101595.78;693482;28;158674;-59
2022/10/11 00:50:09;;;;;;;947.08;883.70;;;;;;;14.55;58.64;101593.25;695700;28;92137;-60
2022/10/11 00:50:32;;;;;;;934.28;871.38;;;;;;;14.56;58.35;101594.09;695062;28;114755;-61
2022/10/11 00:50:54;;;;;;;920.40;857.95;;;;;;;14.55;58.34;101597.84;696517;28;67521;-60
2022/10/11 00:51:20;;;;;;;942.90;879.63;;;;;;;14.55;58.74;101593.25;697488;28;45295;-61
2022/10/11 00:51:46;;;;;;;944.05;880.58;;;;;;;14.55;58.66;101592.41;694165;28;138099;-56
2022/10/11 00:52:13;;;;;;;941.40;878.00;;;;;;;14.54;58.40;101594.28;694041;28;139019;-60
2022/10/11 00:52:38;;;;;;;934.33;871.35;;;;;;;14.54;58.32;101598.88;693907;28;137472;-59
2022/10/11 00:53:02;;;;;;;942.50;879.22;;;;;;;14.54;58.23;101596.16;695625;28;92129;-60
2022/10/11 00:53:23;;;;;;;942.53;879.27;;;;;;;14.52;58.64;101595.50;693230;28;115365;-61
2022/10/11 00:53:46;;;;;;;943.38;880.05;;;;;;;14.51;58.60;101591.91;694351;28;44191;-61
2022/10/11 00:54:09;;;;;;;940.65;877.45;;;;;;;14.50;58.45;101598.41;693916;28;67550;-61
2022/10/11 00:54:33;;;;;;;949.03;885.47;;;;;;;14.50;58.71;101605.69;693921;28;67504;-60
2022/10/11 00:54:56;;;;;;;939.42;876.17;;;;;;;14.48;58.79;101605.91;692757;28;92301;-62
2022/10/11 00:55:20;;;;;;;946.90;883.35;;;;;;;14.47;58.70;101608.81;693899;28;69416;-61
2022/10/11 00:55:47;;;;;;;944.33;880.92;;;;;;;14.45;58.71;101599.97;693026;28;92769;-61
2022/10/11 00:56:12;;;;;;;932.05;869.08;;;;;;;14.44;58.74;101604.56;691412;28;136437;-60
2022/10/11 00:56:37;;;;;;;928.42;865.70;;;;;;;14.42;59.01;101604.75;692185;28;115133;-61
2022/10/11 00:57:02;;;;;;;944.97;881.53;;;;;;;14.40;58.69;101606.81;691371;28;115057;-60
2022/10/11 00:57:27;;;;;;;921.88;858.90;;;;;;;14.41;58.69;101604.94;691082;28;137676;-61
2022/10/11 00:57:48;;;;;;;913.15;850.85;;;;;;;14.40;58.69;101604.09;692969;28;92229;-61
2022/10/11 00:58:11;;;;;;;913.33;850.92;;;;;;;14.38;58.66;101597.97;694531;28;46313;-60
2022/10/11 00:58:33;;;;;;;895.05;832.63;;;;;;;14.40;58.67;101604.09;694224;28;46342;-60
2022/10/11 00:58:54;;;;;;;900.58;837.92;;;;;;;14.40;58.77;101606.81;694594;28;44333;-62
2022/10/11 00:59:20;;;;;;;888.55;826.80;;;;;;;14.39;58.62;101607.81;694668;28;45233;-61
2022/10/11 00:59:45;;;;;;;935.40;872.28;;;;;;;14.37;58.71;101609.88;691336;28;137210;-60
2022/10/11 01:00:10;;;;;;;923.35;860.65;;;;;;;14.37;58.79;101611.75;692342;28;113266;-62
2022/10/11 01:00:31;;;;;;;926.08;863.28;;;;;;;14.38;59.22;101608.00;693088;28;91255;-60
2022/10/11 01:00:52;;;;;;;930.88;867.95;;;;;;;14.36;59.08;101610.91;695009;28;22387;-60
2022/10/11 01:01:15;;;;;;;930.63;867.65;;;;;;;14.37;58.95;101611.75;694326;28;45232;-59
2022/10/11 01:01:37;;;;;;;946.10;882.60;;;;;;;14.33;59.12;101608.53;694490;28;46588;-61
2022/10/11 01:01:58;;;;;;;940.17;876.95;;;;;;;14.36;58.86;101607.34;693727;28;69258;-62
2022/10/11 01:02:20;;;;;;;942.28;878.95;;;;;;;14.35;58.76;101609.19;695100;28;22481;-61
2022/10/11 01:02:42;;;;;;;930.47;867.65;;;;;;;14.33;59.06;101605.00;695298;28;23396;-62
2022/10/11 01:03:03;;;;;;;924.85;862.20;;;;;;;14.34;59.18;101610.25;694518;28;44379;-60
2022/10/11 01:03:27;;;;;;;934.83;871.78;;;;;;;14.34;59.19;101609.38;694421;28;45139;-60
2022/10/11 01:03:48;;;;;;;930.35;867.45;;;;;;;14.33;58.80;101611.25;693220;28;89267;-60
2022/10/11 01:04:09;;;;;;;932.17;869.05;;;;;;;14.32;59.05;101612.28;694419;28;47159;-61
2022/10/11 01:04:31;;;;;;;920.47;857.38;;;;;;;14.31;58.83;101605.16;695365;28;22398;-59
2022/10/11 01:04:53;;;;;;;938.22;875.08;;;;;;;14.31;59.03;101609.75;694596;28;44385;-58
2022/10/11 01:05:16;;;;;;;946.85;883.38;;;;;;;14.31;58.81;101612.47;694582;28;46223;-60
2022/10/11 01:05:38;;;;;;;938.58;875.45;;;;;;;14.32;59.24;101611.44;693811;28;69418;-61
2022/10/11 01:06:02;;;;;;;940.30;877.03;;;;;;;14.32;58.82;101608.72;694674;28;46365;-61
2022/10/11 01:06:24;;;;;;;944.88;881.47;;;;;;;14.31;59.19;101620.59;692969;28;92352;-59
2022/10/11 01:06:46;;;;;;;926.88;864.13;;;;;;;14.30;59.21;101617.06;694637;28;46721;-63
2022/10/11 01:07:08;;;;;;;927.85;864.80;;;;;;;14.30;58.96;101614.34;694032;28;46468;-60
2022/10/11 01:07:30;;;;;;;941.35;877.95;;;;;;;14.31;59.30;101613.31;694386;28;46461;-60
2022/10/11 01:07:53;;;;;;;944.63;881.25;;;;;;;14.30;59.11;101614.34;694705;28;46678;-60
2022/10/11 01:08:14;;;;;;;949.75;886.15;;;;;;;14.30;58.73;101616.22;693748;28;67583;-61
2022/10/11 01:08:35;;;;;;;945.40;881.85;;;;;;;14.31;59.26;101612.47;695024;28;22419;-60
2022/10/11 01:08:56;;;;;;;938.00;874.83;;;;;;;14.30;58.95;101608.91;695308;28;22469;-61
2022/10/11 01:09:28;;;;;;;949.40;885.85;;;;;;;14.30;59.01;101616.22;694017;28;61820;-58
2022/10/11 01:09:49;;;;;;;950.53;886.95;;;;;;;14.30;58.92;101616.22;694595;28;46316;-61
2022/10/11 01:10:10;;;;;;;939.53;876.30;;;;;;;14.31;58.93;101623.31;695413;28;21508;-61
2022/10/11 01:10:32;;;;;;;931.20;868.28;;;;;;;14.30;58.76;101619.78;694642;28;46293;-61
2022/10/11 01:10:53;;;;;;;939.67;876.53;;;;;;;14.29;58.77;101618.06;695438;28;22331;-61
2022/10/11 01:11:17;;;;;;;938.40;875.25;;;;;;;14.28;59.31;101616.41;694714;28;46286;-60
2022/10/11 01:11:40;;;;;;;918.53;856.05;;;;;;;14.28;58.84;101619.13;692921;28;92258;-60
2022/10/11 01:12:03;;;;;;;931.13;868.28;;;;;;;14.29;59.12;101617.25;693814;28;69422;-62
2022/10/11 01:12:26;;;;;;;932.80;869.85;;;;;;;14.27;59.34;101620.13;693751;28;69267;-60
2022/10/11 01:12:55;;;;;;;932.78;869.85;;;;;;;14.27;58.87;101614.69;693752;28;67457;-61
2022/10/11 01:13:27;;;;;;;916.55;853.95;;;;;;;14.26;58.96;101623.88;691477;28;137602;-59
2022/10/11 01:14:00;;;;;;;913.92;851.80;;;;;;;14.25;59.32;101619.47;690486;28;156425;-60
2022/10/11 01:14:32;;;;;;;909.88;847.97;;;;;;;14.23;59.34;101622.38;691369;28;138131;-59
2022/10/11 01:15:08;;;;;;;929.58;866.80;;;;;;;14.23;58.95;101618.78;690391;28;161736;-61
2022/10/11 01:15:33;;;;;;;935.95;872.80;;;;;;;14.21;59.07;101618.13;691356;28;137411;-60
2022/10/11 01:15:58;;;;;;;937.60;874.47;;;;;;;14.21;59.43;101626.28;692056;28;113565;-60
2022/10/11 01:16:24;;;;;;;939.83;876.65;;;;;;;14.20;59.05;101621.88;692144;28;113547;-59
2022/10/11 01:16:54;;;;;;;938.78;875.58;;;;;;;14.19;59.29;101625.63;690760;28;138338;-61
2022/10/11 01:17:21;;;;;;;945.42;881.72;;;;;;;14.18;59.29;101632.06;691094;28;137729;-61
2022/10/11 01:17:46;;;;;;;930.50;867.58;;;;;;;14.15;59.36;101624.28;690860;28;138366;-60
2022/10/11 01:18:13;;;;;;;902.80;840.75;;;;;;;14.13;59.26;101629.91;692017;28;114807;-60
2022/10/11 01:18:43;;;;;;;910.22;847.92;;;;;;;14.08;59.48;101618.72;691943;28;161037;-60
2022/10/11 01:19:13;;;;;;;928.25;865.42;;;;;;;14.12;59.16;101628.22;694201;28;138187;-60
2022/10/11 01:19:47;;;;;;;923.78;861.15;;;;;;;14.12;59.54;101624.63;694153;28;137505;-61
2022/10/11 01:20:29;;;;;;;941.92;878.78;;;;;;;14.10;59.49;101626.69;694048;28;138450;-62
2022/10/11 01:21:00;;;;;;;951.20;887.58;;;;;;;14.12;59.50;101632.78;693101;28;160470;-60
2022/10/11 01:21:29;;;;;;;940.05;876.80;;;;;;;14.11;59.67;101631.13;694059;28;137520;-60
2022/10/11 01:21:54;;;;;;;922.58;859.92;;;;;;;14.10;59.58;101627.53;691898;28;137753;-60
2022/10/11 01:22:29;;;;;;;901.00;838.95;;;;;;;14.10;59.22;101627.53;692025;28;115883;-60
2022/10/11 01:23:35;;;;;;;927.00;864.22;;;;;;;14.09;59.60;101633.16;691364;28;137293;-60
2022/10/11 01:24:08;;;;;;;907.53;845.38;;;;;;;14.08;59.25;101634.19;684812;28;157373;-62
2022/10/11 01:24:44;;;;;;;919.47;856.85;;;;;;;14.07;59.25;101641.47;690024;28;136143;-60
2022/10/11 01:25:14;;;;;;;935.13;872.03;;;;;;;14.04;59.38;101639.97;693382;28;137944;-60
2022/10/11 01:25:40;;;;;;;940.50;877.20;;;;;;;14.04;59.62;101639.09;693782;28;138299;-60
2022/10/11 01:26:19;;;;;;;940.95;877.70;;;;;;;14.03;59.58;101648.31;694032;28;138318;-61
2022/10/11 01:26:55;;;;;;;943.85;880.55;;;;;;;14.00;59.50;101641.34;693972;28;137622;-61
2022/10/11 01:27:41;;;;;;;942.55;879.03;;;;;;;13.99;59.41;101642.34;693009;28;160988;-62
2022/10/11 01:28:15;;;;;;;939.78;876.70;;;;;;;13.98;59.47;101645.25;693112;28;160339;-61
2022/10/11 01:28:41;;;;;;;942.35;879.03;;;;;;;13.96;59.43;101645.44;693609;28;137699;-61
2022/10/11 01:29:10;;;;;;;952.92;889.28;;;;;;;13.96;59.43;101650.84;693171;28;160833;-62
2022/10/11 01:29:41;;;;;;;951.40;887.70;;;;;;;13.93;59.53;101645.78;693919;28;138427;-61
2022/10/11 01:30:21;;;;;;;950.88;887.22;;;;;;;13.93;59.68;101651.22;693254;28;160682;-59
2022/10/11 01:30:42;;;;;;;936.97;873.75;;;;;;;13.93;59.61;101647.66;693982;28;137865;-61
2022/10/11 01:31:08;;;;;;;938.05;874.72;;;;;;;13.92;60.22;101648.66;697963;28;22116;-60
2022/10/11 01:31:35;;;;;;;936.65;873.30;;;;;;;13.92;59.87;101648.66;692171;28;138985;-60
2022/10/11 01:32:02;;;;;;;914.67;852.17;;;;;;;13.91;60.06;101653.28;691351;28;138644;-61
2022/10/11 01:32:26;;;;;;;949.45;885.75;;;;;;;13.82;59.84;101643.47;692151;28;106694;-60
2022/10/11 01:32:53;;;;;;;950.85;887.10;;;;;;;13.90;59.79;101650.72;692801;28;93213;-60
2022/10/11 01:33:25;;;;;;;941.53;878.13;;;;;;;13.90;59.93;101654.28;691283;28;136181;-61
2022/10/11 01:33:50;;;;;;;944.75;881.10;;;;;;;13.89;59.70;101655.31;690508;28;157373;-61
2022/10/11 01:34:15;;;;;;;937.90;874.58;;;;;;;13.91;59.79;101668.72;691404;28;136377;-61
2022/10/11 01:34:40;;;;;;;940.67;877.20;;;;;;;13.90;59.91;101664.31;692524;28;115709;-59
2022/10/11 01:35:06;;;;;;;937.30;874.03;;;;;;;13.88;59.87;101651.75;695608;28;92281;-60
2022/10/11 01:35:30;;;;;;;932.00;869.00;;;;;;;13.89;59.81;101660.75;694031;28;137779;-59
2022/10/11 01:35:58;;;;;;;940.05;876.78;;;;;;;13.87;60.30;101662.78;695687;28;92309;-59
2022/10/11 01:36:26;;;;;;;933.13;870.15;;;;;;;13.87;60.17;101657.34;692700;28;137833;-60
2022/10/11 01:36:52;;;;;;;950.97;887.38;;;;;;;13.87;60.30;101665.50;691292;28;137815;-60
2022/10/11 01:37:17;;;;;;;931.15;868.13;;;;;;;13.87;60.20;101665.50;691205;28;137915;-60
2022/10/11 01:37:41;;;;;;;939.83;876.50;;;;;;;13.86;60.40;101661.09;692228;28;114818;-61
2022/10/11 01:38:07;;;;;;;937.08;873.88;;;;;;;13.81;59.90;101650.78;693566;28;69199;-61
2022/10/11 01:38:34;;;;;;;943.47;880.08;;;;;;;13.85;60.21;101662.97;690888;28;137883;-62
2022/10/11 01:38:57;;;;;;;942.03;878.60;;;;;;;13.85;60.09;101662.13;691195;28;138625;-60
2022/10/11 01:39:21;;;;;;;939.78;876.55;;;;;;;13.85;60.18;101660.25;693773;28;69440;-62
2022/10/11 01:39:46;;;;;;;944.33;880.85;;;;;;;13.84;60.18;101661.28;692895;28;92850;-60
2022/10/11 01:40:11;;;;;;;947.15;883.58;;;;;;;13.86;60.11;101658.38;691753;28;113611;-62
2022/10/11 01:40:35;;;;;;;925.95;863.10;;;;;;;13.82;60.24;101654.31;692123;28;115114;-61
2022/10/11 01:40:59;;;;;;;938.10;874.88;;;;;;;13.82;60.00;101662.47;692980;28;92328;-60
2022/10/11 01:41:23;;;;;;;935.08;871.97;;;;;;;13.81;60.26;101666.22;692848;28;92283;-61
2022/10/11 01:41:47;;;;;;;936.15;872.95;;;;;;;13.80;60.07;101662.66;692939;28;90713;-60
2022/10/11 01:42:11;;;;;;;944.00;880.58;;;;;;;13.80;60.31;101657.22;694846;28;38099;-59
2022/10/11 01:42:33;;;;;;;940.30;876.95;;;;;;;13.80;60.16;101659.94;693639;28;69286;-61
2022/10/11 01:42:55;;;;;;;938.00;874.75;;;;;;;13.80;60.25;101656.38;694373;28;46314;-61
2022/10/11 01:43:17;;;;;;;938.10;874.90;;;;;;;13.79;60.50;101660.09;694633;28;44562;-59
2022/10/11 01:43:40;;;;;;;941.95;878.65;;;;;;;13.78;60.44;101661.97;694090;28;45258;-60
2022/10/11 01:44:02;;;;;;;919.22;856.80;;;;;;;13.78;60.16;101653.84;693880;28;69396;-61
2022/10/11 01:44:27;;;;;;;926.13;863.35;;;;;;;13.77;60.18;101656.72;694885;28;38228;-62
2022/10/11 01:44:49;;;;;;;925.80;863.00;;;;;;;13.75;60.23;101656.91;693657;28;69385;-62
2022/10/11 01:45:14;;;;;;;923.72;861.00;;;;;;;13.74;60.34;101657.09;694639;28;44379;-61
2022/10/11 01:45:37;;;;;;;915.88;853.38;;;;;;;13.74;60.68;101662.50;691963;28;115218;-61
2022/10/11 01:45:59;;;;;;;925.83;862.97;;;;;;;13.74;60.44;101648.94;692866;28;92270;-62
2022/10/11 01:46:21;;;;;;;919.72;857.08;;;;;;;13.73;60.34;101658.09;694412;28;45838;-60
2022/10/11 01:46:43;;;;;;;923.25;860.47;;;;;;;13.74;60.56;101657.09;695335;28;22441;-62
2022/10/11 01:47:05;;;;;;;926.25;863.22;;;;;;;13.72;60.68;101653.69;693233;28;67359;-61
2022/10/11 01:47:26;;;;;;;922.20;859.33;;;;;;;13.73;60.46;101658.97;695102;28;20878;-62
2022/10/11 01:48:00;;;;;;;926.33;863.47;;;;;;;13.70;60.66;101649.28;694655;28;45260;-62
2022/10/11 01:48:22;;;;;;;934.25;871.10;;;;;;;13.73;60.66;101656.25;691254;28;136346;-62
2022/10/11 01:48:48;;;;;;;929.42;866.50;;;;;;;13.72;60.80;101657.25;694099;28;44385;-63